Temporada 2023 · Ronda 5

Miami Grand Prix

2023-05-07 · Miami International Autodrome · USA · Miami Grand Prix · 57Lap · 308.326km
Red Bull 1:27:38.241
Victoria de equipo 44pt P1 · P2 1-2
Red Bull +5.384
Vuelta rápida
1:29.708 · L56
Abandono
0
todos clasificados · 20 salidos
Clima
27°/37°
media aire/pista · seco · humedad 59%
Coche de seguridad
0
Despliegues de SC/VSC
Uso de neumáticos Dirección de carrera
Storylines · This Grand Prix & circuit
Most SC/VSC · all-time P6
Circuito Info
57Lap 308.326km 5 carreras held (2022–) Récord de vuelta 1:29.708 · Max Verstappen (2023)
Récords Watch · Active drivers ranked at this Grand Prix
P1 Max Verstappen 2 victorias · GP #1
P2 Lando Norris 1 victorias · → Max Verstappen -1
P2 Oscar Piastri 1 victorias · → Max Verstappen -1
P1 Lando Norris 3 · GP #1
P1 Max Verstappen 3 · GP #1
P1 Lando Norris 2 · GP #1
P1 Max Verstappen 2 · GP #1
P3 Oscar Piastri 1 · → Max Verstappen -1
P1 Alexander Albon 5 salidas · GP #1
P1 Fernando Alonso 5 salidas · GP #1
P1 Pierre Gasly 5 salidas · GP #1
Carrera Trace · position by lap
salida parada SG 1 6 11 16 21 26 31 36 41 46 51 56 FIN Verstappen · parada en boxes L45 Verstappen VER Verstappen VER Pérez · parada en boxes L20 Pérez PER Pérez PER Alonso · parada en boxes L24 Alonso ALO Alonso ALO Russell · parada en boxes L17 Russell RUS Russell RUS Sainz · parada en boxes L18 Sainz · +5s sumado tras la carrera Sainz SAI Sainz SAI Hamilton · parada en boxes L37 Hamilton HAM Hamilton HAM Leclerc · parada en boxes L17 Leclerc LEC Leclerc LEC Gasly · parada en boxes L15 Gasly GAS Gasly GAS Ocon · parada en boxes L39 Ocon OCO Ocon OCO Magnussen · parada en boxes L14 Magnussen MAG Magnussen MAG Tsunoda · parada en boxes L36 Tsunoda TSU Tsunoda TSU Stroll · parada en boxes L42 Stroll STR Stroll STR Bottas · parada en boxes L15 Bottas BOT Bottas BOT Albon · parada en boxes L22 Albon ALB Albon ALB Hülkenberg · parada en boxes L33 Hülkenberg HUL Hülkenberg HUL Zhou · parada en boxes L31 Zhou ZHO Zhou ZHO Norris · parada en boxes L4 Norris NOR Norris NOR de Vries · parada en boxes L15 de Vries DEV de Vries DEV Piastri · parada en boxes L5 Piastri PIA Piastri PIA Sargeant · parada en boxes L2 Sargeant SAR Sargeant SAR
parada en boxes sanción cumplida en boxes SG Parrilla de salida FIN clasificación oficial sanción sumada tras la carrera coche detenido posición en cada vuelta (desde 1996)
PosPilotoTeamParrillaVueltaTiempo / EstadoPuntos
1 1 Max Verstappen FL Red Bull 9 57 1:27:38.241 26
2 11 Sergio Pérez Red Bull 1 57 +5.384 18
3 14 Fernando Alonso Aston Martin 2 57 +26.305 15
4 63 George Russell Mercedes 6 57 +33.229 12
5 55 Carlos Sainz Ferrari 3 57 +42.511 10
6 44 Lewis Hamilton Mercedes 13 57 +51.249 8
7 16 Charles Leclerc Ferrari 7 57 +52.988 6
8 10 Pierre Gasly Alpine F1 Team 5 57 +55.670 4
9 31 Esteban Ocon Alpine F1 Team 8 57 +58.123 2
10 20 Kevin Magnussen Haas F1 Team 4 57 +1:02.945 1
11 22 Yuki Tsunoda AlphaTauri 17 57 +1:04.309
12 18 Lance Stroll Aston Martin 18 57 +1:04.754
13 77 Valtteri Bottas Alfa Romeo 10 57 +1:11.637
14 23 Alexander Albon Williams 11 57 +1:12.861
15 27 Nico Hülkenberg Haas F1 Team 12 57 +1:14.950
16 24 Guanyu Zhou Alfa Romeo 14 57 +1:18.440
17 4 Lando Norris McLaren 16 57 +1:27.717
18 21 Nyck de Vries AlphaTauri 15 57 +1:28.949
19 81 Oscar Piastri McLaren 19 56 +20.510
20 2 Logan Sargeant Williams 20 56 +34.388
PosPilotoTeamQ1Q2Q3Diferencia con la pole
1 11 Sergio Pérez Red Bull 1:27.713 1:27.328 1:26.841 +0.027 Q3
2 14 Fernando Alonso Aston Martin 1:28.179 1:27.097 1:27.202 +0.283 Q2
3 55 Carlos Sainz Ferrari 1:27.686 1:27.148 1:27.349 +0.334 Q2
4 20 Kevin Magnussen Haas F1 Team 1:27.809 1:27.673 1:27.767 +0.859 Q2
5 10 Pierre Gasly Alpine F1 Team 1:28.061 1:27.612 1:27.786 +0.798 Q2
6 63 George Russell Mercedes 1:28.086 1:27.743 1:27.804 +0.929 Q2
7 16 Charles Leclerc Ferrari 1:27.713 1:26.964 1:27.861 +0.150 Q2
8 31 Esteban Ocon Alpine F1 Team 1:27.872 1:27.444 1:27.935 +0.630 Q2
9 1 Max Verstappen Red Bull 1:27.363 1:26.814 POLE Q2
10 77 Valtteri Bottas Alfa Romeo 1:27.864 1:27.564 +0.750 Q2
11 23 Alexander Albon Williams 1:28.234 1:27.795 +0.981 Q2
12 27 Nico Hülkenberg Haas F1 Team 1:27.945 1:27.903 +1.089 Q2
13 44 Lewis Hamilton Mercedes 1:27.846 1:27.975 +1.032 Q1
14 24 Guanyu Zhou Alfa Romeo 1:28.180 1:28.091 +1.277 Q2
15 21 Nyck de Vries AlphaTauri 1:28.325 1:28.395 +1.511 Q1
16 4 Lando Norris McLaren 1:28.394 +1.580 Q1
17 22 Yuki Tsunoda AlphaTauri 1:28.429 +1.615 Q1
18 18 Lance Stroll Aston Martin 1:28.476 +1.662 Q1
19 81 Oscar Piastri McLaren 1:28.484 +1.670 Q1
20 2 Logan Sargeant Williams 1:28.577 +1.763 Q1
Parrilla de salida
Oficial
Final grid as clasificado, including any desde el pit lane salidas. Source: Jolpica-F1. The arrow compares the grid slot with the clasificación classification; hover a drop to see the stewards document behind it.
No hay datos de esta sesión.
PosPilotoMejor vueltaDiferenciaVueltas
1 63 George Russell 1:30.125 18
2 44 Lewis Hamilton 1:30.337 +0.212 24
3 16 Charles Leclerc 1:30.449 +0.324 23
4 1 Max Verstappen 1:30.549 +0.424 22
5 55 Carlos Sainz 1:30.724 +0.599 23
6 10 Pierre Gasly 1:31.104 +0.979 20
7 14 Fernando Alonso 1:31.231 +1.106 24
8 18 Lance Stroll 1:31.337 +1.212 24
9 27 Nico Hülkenberg 1:31.392 +1.267 14
10 31 Esteban Ocon 1:31.542 +1.417 27
11 11 Sergio Pérez 1:31.566 +1.441 22
12 81 Oscar Piastri 1:31.810 +1.685 24
13 20 Kevin Magnussen 1:31.853 +1.728 25
14 77 Valtteri Bottas 1:31.902 +1.777 24
15 23 Alexander Albon 1:31.903 +1.778 25
16 4 Lando Norris 1:31.997 +1.872 23
17 24 Guanyu Zhou 1:32.134 +2.009 22
18 22 Yuki Tsunoda 1:32.169 +2.044 28
19 2 Logan Sargeant 1:32.619 +2.494 27
20 21 Nyck de Vries 1:34.637 +4.512 10
Classified by best lap · source OpenF1 (2023+)
PosPilotoMejor vueltaDiferenciaVueltas
1 1 Max Verstappen 1:27.930 23
2 55 Carlos Sainz 1:28.315 +0.385 26
3 16 Charles Leclerc 1:28.398 +0.468 20
4 11 Sergio Pérez 1:28.419 +0.489 24
5 14 Fernando Alonso 1:28.660 +0.730 25
6 4 Lando Norris 1:28.741 +0.811 24
7 44 Lewis Hamilton 1:28.858 +0.928 23
8 18 Lance Stroll 1:28.930 +1.000 23
9 31 Esteban Ocon 1:28.937 +1.007 25
10 23 Alexander Albon 1:29.046 +1.116 26
11 10 Pierre Gasly 1:29.098 +1.168 22
12 20 Kevin Magnussen 1:29.171 +1.241 22
13 24 Guanyu Zhou 1:29.181 +1.251 27
14 77 Valtteri Bottas 1:29.189 +1.259 26
15 63 George Russell 1:29.216 +1.286 21
16 81 Oscar Piastri 1:29.339 +1.409 24
17 27 Nico Hülkenberg 1:29.393 +1.463 22
18 22 Yuki Tsunoda 1:29.613 +1.683 25
19 21 Nyck de Vries 1:29.928 +1.998 25
20 2 Logan Sargeant 1:30.038 +2.108 27
Classified by best lap · source OpenF1 (2023+)
PosPilotoMejor vueltaDiferenciaVueltas
1 1 Max Verstappen 1:27.535 18
2 16 Charles Leclerc 1:27.941 +0.406 26
3 11 Sergio Pérez 1:28.050 +0.515 22
4 55 Carlos Sainz 1:28.125 +0.590 27
5 31 Esteban Ocon 1:28.407 +0.872 25
6 10 Pierre Gasly 1:28.428 +0.893 24
7 77 Valtteri Bottas 1:28.456 +0.921 19
8 27 Nico Hülkenberg 1:28.497 +0.962 16
9 23 Alexander Albon 1:28.561 +1.026 20
10 63 George Russell 1:28.606 +1.071 20
11 20 Kevin Magnussen 1:28.607 +1.072 14
12 14 Fernando Alonso 1:28.618 +1.083 24
13 44 Lewis Hamilton 1:28.718 +1.183 23
14 18 Lance Stroll 1:28.723 +1.188 24
15 24 Guanyu Zhou 1:29.074 +1.539 19
16 22 Yuki Tsunoda 1:29.179 +1.644 20
17 2 Logan Sargeant 1:29.264 +1.729 20
18 81 Oscar Piastri 1:29.375 +1.840 18
19 4 Lando Norris 1:29.401 +1.866 18
20 21 Nyck de Vries 1:29.447 +1.912 22
Classified by best lap · source OpenF1 (2023+)
#PilotoTiempo de vueltaVuelta
1 1 Max Verstappen 1:29.708 L56
2 1 Max Verstappen 1:30.273 L57
3 1 Max Verstappen 1:30.372 L52
4 1 Max Verstappen 1:30.391 L55
5 1 Max Verstappen 1:30.492 L54
6 14 Fernando Alonso 1:30.519 L57
7 1 Max Verstappen 1:30.546 L53
8 11 Sergio Pérez 1:30.560 L57
9 11 Sergio Pérez 1:30.635 L55
10 1 Max Verstappen 1:30.637 L48
Top 10 más rápida race vueltas — #1 is the más rápida lap of la carrera(FL).
Paradas · cómo se comparan
25s 30s 35s 40s 45s 50s mediana 22.5s Sergio Pérez · L20 · 21.884s Esteban Ocon · L39 · 21.942s Charles Leclerc · L17 · 22.068s Lewis Hamilton · L37 · 22.150s Oscar Piastri · L5 · 22.205s Carlos Sainz · L18 · 22.278s George Russell · L17 · 22.335s Yuki Tsunoda · L36 · 22.390s Pierre Gasly · L15 · 22.417s Alexander Albon · L22 · 22.482s Kevin Magnussen · L14 · 22.616s Fernando Alonso · L24 · 22.631s Lance Stroll · L42 · 22.651s Max Verstappen · L45 · 22.688s Guanyu Zhou · L31 · 22.796s Nico Hülkenberg · L33 · 23.120s Valtteri Bottas · L15 · 23.158s Nyck de Vries · L15 · 23.487s Lando Norris · L4 · 24.090s Logan Sargeant · L2 · 48.938s
más rápida 21.884s Sergio Pérez más lenta 48.938s Logan Sargeant tiempo de paso por el desde el pit lane — un punto por parada
PilotoParadaVueltaTiempoPaso por el desde el pit lane
2 Logan Sargeant 1 2 15:37:09 48.938s
4 Lando Norris 1 4 15:40:18 24.090s
81 Oscar Piastri 1 5 15:41:49 22.205s
20 Kevin Magnussen 1 14 15:55:45 22.616s
21 Nyck de Vries 1 15 15:57:33 23.487s
10 Pierre Gasly 1 15 15:57:16 22.417s
77 Valtteri Bottas 1 15 15:57:23 23.158s
16 Charles Leclerc 1 17 16:00:25 22.068s
63 George Russell 1 17 16:00:18 22.335s
55 Carlos Sainz 1 18 16:01:46 22.278s
11 Sergio Pérez 1 20 16:04:48 21.884s
23 Alexander Albon 1 22 16:08:22 22.482s
14 Fernando Alonso 1 24 16:11:02 22.631s
24 Guanyu Zhou 1 31 16:22:27 22.796s
27 Nico Hülkenberg 1 33 16:25:26 23.120s
22 Yuki Tsunoda 1 36 16:30:01 22.390s
44 Lewis Hamilton 1 37 16:31:29 22.150s
31 Esteban Ocon 1 39 16:34:33 21.942s
18 Lance Stroll 1 42 16:39:18 22.651s
1 Max Verstappen 1 45 16:42:58 22.688s
paradas
SG 10 20 30 40 50 L57
1
1
H44
M13
11
1
M19
H38
14
1
M23·+1
H34·+1
63
1
M16
H41
55
1
M17
H40
44
1
H36
M21
16
1
M16
H41
10
1
M14
H43
31
1
H38
M19
20
1
M13
H44
22
1
H35
M22
18
1
H41·+1
M16·+1
77
1
M14
H43
23
1
M21
H36
27
1
H32
M25
24
1
H30
M27
4
1
S3
H54
21
1
M14
H43
81
1
S4
H52
2
1
M1
H55
S Soft M Medium H Hard I Intermediate W Wet SC·VSC parada en boxes sanción cumplida en boxes
Carrera · ancho de barra = vueltas con ese juego, ·+N = montado usado con N vueltas previas · fuente OpenF1 (2023+)
Compuestos designados para este Gran Premio
C2 Duro C3 Medio C4 Blando
Pirelli designa tres de sus compuestos secos para cada prueba; cuanto mayor es el número C, más blando es el neumático. Documento FIA ↗
Más puestos ganados en pista
18
+15
P18→P12
44
+14
P13→P6
16
+11
P7→P7
31
+11
P8→P9
22
+11
P17→P11
1
+9
P9→P1
63
+9
P6→P4
20
+9
P4→P10
Más puestos perdidos
Charles Leclerc −12 Pierre Gasly −12 Kevin Magnussen −12
Carrera · Suma de posiciones ganadas en pista vuelta a vuelta — se excluyen la vuelta de salida y las vueltas de boxes propias. Datos de vueltas de carrera desde 1996.
PilotoTipoVueltaCumplidaImpuestaMotivo
55 Carlos Sainz Time penalty 23 Tras la carrera +5s Infringement - Car 55 - Pit lane speeding (5 second time penalty.) Documento FIA ↗
Vuelta 23 · Cumplida Tras la carrera · +5s Infringement - Car 55 - Pit lane speeding (5 second time penalty.) Documento FIA ↗
Vuelta = vuelta en que se impuso la sanción · Cumplida = vuelta en que se cumplió en boxes (en blanco: se sumó al tiempo de carrera)
Time, drive-through and stop-go penalties come from race control messages (OpenF1, 2023+). Parrilla penalties never appear there — the stewards publish them as documents after the session — so they are worked back from the starting grid against the clasificación classification, which gives places actually lost rather than the figure written in the decision.
PilotoTipoVueltaCumplidaImpuestaMotivo
44 Lewis Hamilton No further action Decision - Car 44 - Turn 17 Incident (No further action.) Documento FIA ↗
Decision - Car 44 - Turn 17 Incident (No further action.) Documento FIA ↗
20 Kevin Magnussen No further action Decision - Car 20 - Turn 17 Incident (No further action.) Documento FIA ↗
Decision - Car 20 - Turn 17 Incident (No further action.) Documento FIA ↗
Vuelta = vuelta en que se impuso la sanción · Cumplida = vuelta en que se cumplió en boxes (en blanco: se sumó al tiempo de carrera)
Time, drive-through and stop-go penalties come from race control messages (OpenF1, 2023+). Parrilla penalties never appear there — the stewards publish them as documents after the session — so they are worked back from the starting grid against the clasificación classification, which gives places actually lost rather than the figure written in the decision.
PilotoTipoVueltaCumplidaImpuestaMotivo
11 Sergio Pérez Black-and-white flag warning CROSSING THE LINE AT PIT ENTRY
CROSSING THE LINE AT PIT ENTRY
Vuelta = vuelta en que se impuso la sanción · Cumplida = vuelta en que se cumplió en boxes (en blanco: se sumó al tiempo de carrera)
Time, drive-through and stop-go penalties come from race control messages (OpenF1, 2023+). Parrilla penalties never appear there — the stewards publish them as documents after the session — so they are worked back from the starting grid against the clasificación classification, which gives places actually lost rather than the figure written in the decision.
PilotoTipoVueltaCumplidaImpuestaMotivo
11 Sergio Pérez Amonestación Decision - Car 11 - Pilotos' Parade (Amonestación (Non-driving).) Documento FIA ↗
Decision - Car 11 - Pilotos' Parade (Amonestación (Non-driving).) Documento FIA ↗
Vuelta = vuelta en que se impuso la sanción · Cumplida = vuelta en que se cumplió en boxes (en blanco: se sumó al tiempo de carrera)
Time, drive-through and stop-go penalties come from race control messages (OpenF1, 2023+). Parrilla penalties never appear there — the stewards publish them as documents after the session — so they are worked back from the starting grid against the clasificación classification, which gives places actually lost rather than the figure written in the decision.
DocTítuloAsuntoPublished(CET)
Event Notes - Pirelli Preview ↗ 2023-05-03 18:34
2023-05-03 18:34 CET
Event Notes - Circuito Map and Red Zone ↗ 2023-05-04 17:18
2023-05-04 17:18 CET
Carrera Director's Event Notes ↗ 2023-05-04 18:05
2023-05-04 18:05 CET
Car Display Procedure ↗ 2023-05-04 18:16
2023-05-04 18:16 CET
Event Notes - Pit Lane Drawing ↗ 2023-05-05 17:55
2023-05-05 17:55 CET
RNCs usados per driver up to now ↗ 2023-05-05 17:56
2023-05-05 17:56 CET
PU elements usados per driver up to now ↗ 2023-05-05 17:56
2023-05-05 17:56 CET
Self scrutineering ↗ 2023-05-05 18:33
2023-05-05 18:33 CET
Entry List ↗ 2023-05-05 18:35
2023-05-05 18:35 CET
New PU elements for this Competition ↗ 2023-05-05 21:10
2023-05-05 21:10 CET
New RNCs for this Competition ↗ 2023-05-05 21:11
2023-05-05 21:11 CET
P1 Classification ↗ 2023-05-05 21:16
2023-05-05 21:16 CET
New RNCs for this Competition ↗ 2023-05-05 23:36
2023-05-05 23:36 CET
New PU elements for this Competition ↗ 2023-05-05 23:37
2023-05-05 23:37 CET
P2 Classification ↗ 2023-05-06 00:50
2023-05-06 00:50 CET
Offence - Car 18 - Pit lane speeding (second) ↗ 18 Lance Stroll 2023-05-06 01:24
18 Lance Stroll 2023-05-06 01:24 CET
Offence - Car 18 - Pit lane speeding ↗ 18 Lance Stroll 2023-05-06 01:24
18 Lance Stroll 2023-05-06 01:24 CET
Carrera Director's Note - SC2-SC1 Time ↗ 2023-05-06 01:30
2023-05-06 01:30 CET
P1 and P2 scrutineering ↗ 2023-05-06 02:43
2023-05-06 02:43 CET
Use of gearbox assemblies outside the RNC allocation ↗ 2023-05-06 03:19
2023-05-06 03:19 CET
Carrera Director's Event Notes V2 ↗ 2023-05-06 14:51
2023-05-06 14:51 CET
Post-Clasificación Procedure ↗ 2023-05-06 18:05
2023-05-06 18:05 CET
New RNCs for this Competition ↗ 2023-05-06 18:44
2023-05-06 18:44 CET
New PU elements for this Competition ↗ 2023-05-06 18:46
2023-05-06 18:46 CET
P3 Classification ↗ 2023-05-06 19:46
2023-05-06 19:46 CET
New PU elements for this Competition ↗ 2023-05-06 20:14
2023-05-06 20:14 CET
Provisional Clasificación Classification ↗ 2023-05-06 23:15
2023-05-06 23:15 CET
Summons - Car 20 - Turn 17 Incident ↗ 20 Kevin Magnussen 2023-05-06 23:21
20 Kevin Magnussen 2023-05-06 23:21 CET
Summons - Car 44 - Turn 17 incident ↗ 44 Lewis Hamilton 2023-05-06 23:24
44 Lewis Hamilton 2023-05-06 23:24 CET
Decision - Car 20 - Turn 17 Incident ↗ 20 Kevin Magnussen 2023-05-07 00:28
20 Kevin Magnussen 2023-05-07 00:28 CET
Decision - Car 44 - Turn 17 Incident ↗ 44 Lewis Hamilton 2023-05-07 00:29
44 Lewis Hamilton 2023-05-07 00:29 CET
P3 and Clasificación scrutineering ↗ 2023-05-07 01:25
2023-05-07 01:25 CET
Final Clasificación Classification ↗ 2023-05-07 01:30
2023-05-07 01:30 CET
Provisional Starting Parrilla ↗ 2023-05-07 01:35
2023-05-07 01:35 CET
Pre-Carrera Procedure ↗ 2023-05-07 01:53
2023-05-07 01:53 CET
Post-Carrera Procedure ↗ 2023-05-07 03:01
2023-05-07 03:01 CET
Parts and parameters been replaced and or changed during Parc Fermé ↗ 2023-05-07 19:26
2023-05-07 19:26 CET
Final Starting Parrilla ↗ 2023-05-07 19:30
2023-05-07 19:30 CET
Infringement - Car 55 - Pit lane speeding ↗ 55 Carlos Sainz 2023-05-07 22:20
55 Carlos Sainz 2023-05-07 22:20 CET
Provisional Carrera Classification ↗ 2023-05-07 23:21
2023-05-07 23:21 CET
Summons - Car 11 - Pilotos' Parade ↗ 11 Sergio Pérez 2023-05-07 23:29
11 Sergio Pérez 2023-05-07 23:29 CET
Carrera Deleted Vuelta Times ↗ 2023-05-07 23:52
2023-05-07 23:52 CET
Carrera scrutineering ↗ 2023-05-08 00:44
2023-05-08 00:44 CET
Decision - Car 11 - Pilotos' Parade ↗ 11 Sergio Pérez 2023-05-08 00:52
11 Sergio Pérez 2023-05-08 00:52 CET
Final Carrera Classification ↗ 2023-05-08 00:55
2023-05-08 00:55 CET
Campeonato Puntos ↗ 2023-05-08 01:02
2023-05-08 01:02 CET
FIA official decisions and documents (fia.com) · PDF original PDF links
Record Basis · Calculation basis
Carrera order is the final classification(post-race penalties applied) · clasificación session data 2003+ · lap times 1996+ · pit stops 2012+ (pit-lane transit, not stationary time) · Abandono = Finished(Finished·+N Vueltas) non-Finished statuses
Fuentes de datos: Jolpica-F1 (Ergast compatible API) · weather·Dirección de carrera OpenF1 (2023+) · Last fetched: 2026-09-05 14:15